createdAt,value
2022-09-28T00:01:25.702Z,97673.09
2022-09-28T00:03:52.285Z,97665.97
2022-09-28T00:06:19.099Z,97664.09
2022-09-28T00:08:45.863Z,97665.06
2022-09-28T00:11:12.292Z,97660.69
2022-09-28T00:13:39.053Z,97662.81
2022-09-28T00:16:05.675Z,97664.88
2022-09-28T00:18:32.193Z,97665.00
2022-09-28T00:20:59.505Z,97666.03
2022-09-28T00:23:26.060Z,97659.34
2022-09-28T00:25:52.511Z,97653.81
2022-09-28T00:28:19.690Z,97665.06
2022-09-28T00:30:46.344Z,97664.94
2022-09-28T00:33:12.891Z,97656.44
2022-09-28T00:35:39.791Z,97654.50
2022-09-28T00:38:06.236Z,97652.25
2022-09-28T00:40:32.693Z,97657.06
2022-09-28T00:43:00.693Z,97641.50
2022-09-28T00:45:27.397Z,97647.25
2022-09-28T00:47:54.067Z,97637.50
2022-09-28T00:50:20.676Z,97636.16
2022-09-28T00:52:47.146Z,97647.88
2022-09-28T00:55:13.626Z,97638.94
2022-09-28T00:57:40.149Z,97648.16
2022-09-28T01:00:06.646Z,97644.84
2022-09-28T01:02:33.121Z,97651.63
2022-09-28T01:04:59.897Z,97658.59
2022-09-28T01:07:26.734Z,97668.06
2022-09-28T01:09:53.394Z,97674.25
2022-09-28T01:12:20.841Z,97676.88
2022-09-28T01:14:47.426Z,97674.00
2022-09-28T01:17:13.947Z,97669.19
2022-09-28T01:19:40.994Z,97667.38
2022-09-28T01:22:07.717Z,97667.13
2022-09-28T01:24:34.224Z,97667.50
2022-09-28T01:27:00.832Z,97670.66
2022-09-28T01:29:27.496Z,97669.78
2022-09-28T01:31:54.295Z,97672.84
2022-09-28T01:34:21.255Z,97674.66
2022-09-28T01:36:47.754Z,97660.75
2022-09-28T01:39:14.458Z,97655.03
2022-09-28T01:41:42.342Z,97665.81
2022-09-28T01:44:09.164Z,97654.50
2022-09-28T01:46:35.703Z,97654.59
2022-09-28T01:49:02.552Z,97648.22
2022-09-28T01:51:29.058Z,97645.38
2022-09-28T01:53:55.527Z,97639.31
2022-09-28T01:56:22.312Z,97645.19
2022-09-28T01:58:48.864Z,97655.09
2022-09-28T02:01:15.531Z,97656.59
2022-09-28T02:03:42.393Z,97659.81
2022-09-28T02:06:08.911Z,97655.25
2022-09-28T02:08:35.379Z,97657.88
2022-09-28T02:11:02.343Z,97661.59
2022-09-28T02:13:28.794Z,97652.13
2022-09-28T02:15:55.377Z,97659.91
2022-09-28T02:18:22.144Z,97649.22
2022-09-28T02:20:48.758Z,97659.66
2022-09-28T02:23:15.187Z,97654.25
2022-09-28T02:25:41.985Z,97652.91
2022-09-28T02:28:08.464Z,97649.31
2022-09-28T02:30:34.907Z,97645.72
2022-09-28T02:33:01.657Z,97644.75
2022-09-28T02:35:28.100Z,97645.09
2022-09-28T02:37:54.492Z,97650.03
2022-09-28T02:40:21.984Z,97646.22
2022-09-28T02:42:48.477Z,97652.84
2022-09-28T02:45:14.936Z,97646.72
2022-09-28T02:47:41.637Z,97637.97
2022-09-28T02:50:08.042Z,97641.69
2022-09-28T02:52:34.485Z,97637.88
2022-09-28T02:55:01.069Z,97632.09
2022-09-28T02:57:27.684Z,97626.88
2022-09-28T02:59:54.159Z,97630.94
2022-09-28T03:02:20.931Z,97641.72
2022-09-28T03:04:47.417Z,97641.97
2022-09-28T03:07:14.062Z,97631.78
2022-09-28T03:09:41.710Z,97635.50
2022-09-28T03:12:08.161Z,97625.66
2022-09-28T03:14:34.606Z,97629.63
2022-09-28T03:17:01.135Z,97620.19
2022-09-28T03:19:27.579Z,97627.69
2022-09-28T03:21:54.026Z,97618.44
2022-09-28T03:24:20.591Z,97636.53
2022-09-28T03:26:47.176Z,97625.16
2022-09-28T03:29:13.822Z,97627.34
2022-09-28T03:31:40.527Z,97627.19
2022-09-28T03:34:07.039Z,97639.53
2022-09-28T03:36:33.616Z,97634.38
2022-09-28T03:39:00.515Z,97630.38
2022-09-28T03:41:26.969Z,97622.72
2022-09-28T03:43:53.423Z,97610.16
2022-09-28T03:46:20.303Z,97608.94
2022-09-28T03:48:46.808Z,97601.03
2022-09-28T03:51:13.343Z,97598.88
2022-09-28T03:53:39.890Z,97601.75
2022-09-28T03:56:06.415Z,97596.28
2022-09-28T03:58:32.965Z,97585.00
2022-09-28T04:00:59.770Z,97597.22
2022-09-28T04:03:26.301Z,97588.41
2022-09-28T04:05:52.779Z,97581.91
2022-09-28T04:08:19.292Z,97584.19
2022-09-28T04:10:45.870Z,97587.19
2022-09-28T04:13:12.340Z,97581.06
2022-09-28T04:15:39.026Z,97577.59
2022-09-28T04:18:05.482Z,97564.69
2022-09-28T04:20:31.973Z,97563.94
2022-09-28T04:22:58.590Z,97562.41
2022-09-28T04:25:25.040Z,97561.44
2022-09-28T04:27:51.581Z,97551.78
2022-09-28T04:30:18.190Z,97561.06
2022-09-28T04:32:44.933Z,97562.38
2022-09-28T04:35:11.381Z,97553.41
2022-09-28T04:37:38.237Z,97548.97
2022-09-28T04:40:05.014Z,97549.00
2022-09-28T04:42:31.539Z,97546.59
2022-09-28T04:44:58.986Z,97556.06
2022-09-28T04:47:25.460Z,97555.88
2022-09-28T04:49:52.211Z,97551.97
2022-09-28T04:52:18.885Z,97550.06
2022-09-28T04:54:45.568Z,97548.22
2022-09-28T04:57:12.190Z,97542.00
2022-09-28T04:59:38.787Z,97531.88
2022-09-28T05:02:05.289Z,97524.19
2022-09-28T05:04:31.826Z,97520.97
2022-09-28T05:06:58.611Z,97518.63
2022-09-28T05:09:25.043Z,97518.03
2022-09-28T05:11:51.575Z,97524.59
2022-09-28T05:14:18.279Z,97524.34
2022-09-28T05:16:44.902Z,97530.94
2022-09-28T05:19:11.800Z,97537.97
2022-09-28T05:21:38.365Z,97543.50
2022-09-28T05:24:05.031Z,97549.84
2022-09-28T05:26:31.595Z,97539.75
2022-09-28T05:28:58.295Z,97544.41
2022-09-28T05:31:24.878Z,97527.63
2022-09-28T05:33:51.397Z,97524.41
2022-09-28T05:36:19.458Z,97510.53
2022-09-28T05:38:45.948Z,97516.38
2022-09-28T05:41:12.418Z,97507.16
2022-09-28T05:43:39.810Z,97498.06
2022-09-28T05:46:08.759Z,97495.03
2022-09-28T05:48:35.286Z,97498.88
2022-09-28T05:51:02.031Z,97498.97
2022-09-28T05:53:28.585Z,97507.19
2022-09-28T05:55:55.074Z,97504.81
2022-09-28T05:58:22.076Z,97492.38
2022-09-28T06:00:48.629Z,97494.31
2022-09-28T06:03:15.153Z,97487.94
2022-09-28T06:05:41.890Z,97495.84
2022-09-28T06:08:08.427Z,97501.78
2022-09-28T06:10:35.150Z,97496.94
2022-09-28T06:13:02.438Z,97496.03
2022-09-28T06:15:28.954Z,97490.47
2022-09-28T06:17:55.737Z,97483.25
2022-09-28T06:20:22.530Z,97479.19
2022-09-28T06:22:48.971Z,97478.25
2022-09-28T06:25:15.467Z,97488.31
2022-09-28T06:27:42.097Z,97480.69
2022-09-28T06:30:10.369Z,97485.97
2022-09-28T06:32:36.938Z,97493.97
2022-09-28T06:35:03.672Z,97488.03
2022-09-28T06:37:31.394Z,97488.78
2022-09-28T06:39:59.939Z,97487.75
2022-09-28T06:42:26.625Z,97483.31
2022-09-28T06:44:53.146Z,97488.31
2022-09-28T06:47:19.625Z,97482.75
2022-09-28T06:49:46.533Z,97481.38
2022-09-28T06:52:13.268Z,97485.53
2022-09-28T06:54:40.097Z,97485.56
2022-09-28T06:57:06.584Z,97472.22
2022-09-28T06:59:33.036Z,97470.84
2022-09-28T07:01:59.619Z,97466.81
2022-09-28T07:04:26.139Z,97458.59
2022-09-28T07:06:52.625Z,97462.06
2022-09-28T07:09:31.442Z,97459.13
2022-09-28T07:11:59.755Z,97457.03
2022-09-28T07:14:45.888Z,97447.16
2022-09-28T07:17:14.439Z,97451.63
2022-09-28T07:19:41.253Z,97447.16
2022-09-28T07:22:07.860Z,97445.25
2022-09-28T07:24:34.942Z,97432.97
2022-09-28T07:27:01.383Z,97429.53
2022-09-28T07:29:27.866Z,97440.75
2022-09-28T07:31:54.652Z,97433.41
2022-09-28T07:34:21.122Z,97439.38
2022-09-28T07:36:47.827Z,97421.47
2022-09-28T07:39:14.862Z,97427.16
2022-09-28T07:41:41.331Z,97417.69
2022-09-28T07:44:08.017Z,97402.66
2022-09-28T07:46:34.830Z,97389.03
2022-09-28T07:49:01.298Z,97390.16
2022-09-28T07:51:27.953Z,97385.16
2022-09-28T07:53:55.177Z,97385.44
2022-09-28T07:56:21.711Z,97383.19
2022-09-28T07:58:48.184Z,97379.59
2022-09-28T08:01:14.757Z,97382.50
2022-09-28T08:03:41.646Z,97378.59
2022-09-28T08:06:08.191Z,97377.44
2022-09-28T08:08:34.802Z,97376.75
2022-09-28T08:11:01.278Z,97375.38
2022-09-28T08:13:27.708Z,97378.97
2022-09-28T08:15:54.341Z,97368.91
2022-09-28T08:18:20.870Z,97373.88
2022-09-28T08:20:51.322Z,97367.28
2022-09-28T08:23:18.443Z,97368.72
2022-09-28T08:25:44.874Z,97366.91
2022-09-28T08:28:11.339Z,97362.47
2022-09-28T08:30:38.109Z,97363.00
2022-09-28T08:33:04.866Z,97366.59
2022-09-28T08:35:31.389Z,97363.81
2022-09-28T08:37:58.462Z,97370.53
2022-09-28T08:40:26.111Z,97358.72
2022-09-28T08:42:52.730Z,97352.69
2022-09-28T08:45:20.108Z,97348.44
2022-09-28T08:47:48.537Z,97348.84
2022-09-28T08:50:15.065Z,97346.84
2022-09-28T08:52:42.390Z,97332.34
2022-09-28T08:55:09.972Z,97321.78
2022-09-28T08:57:36.505Z,97321.78
2022-09-28T09:00:03.256Z,97330.53
2022-09-28T09:02:29.795Z,97333.19
2022-09-28T09:04:56.306Z,97323.66
2022-09-28T09:07:22.898Z,97323.25
2022-09-28T09:09:49.421Z,97317.38
2022-09-28T09:12:15.948Z,97310.34
2022-09-28T09:14:42.456Z,97306.78
2022-09-28T09:17:08.933Z,97302.91
2022-09-28T09:19:35.841Z,97303.16
2022-09-28T09:22:02.509Z,97304.06
2022-09-28T09:24:29.045Z,97298.53
2022-09-28T09:26:55.623Z,97299.59
2022-09-28T09:29:22.484Z,97295.81
2022-09-28T09:31:48.965Z,97292.63
2022-09-28T09:34:15.638Z,97290.50
2022-09-28T09:36:42.148Z,97286.56
2022-09-28T09:39:08.603Z,97296.06
2022-09-28T09:41:35.312Z,97292.72
2022-09-28T09:44:02.103Z,97293.41
2022-09-28T09:46:28.563Z,97292.16
2022-09-28T09:48:55.031Z,97289.25
2022-09-28T09:51:22.216Z,97285.00
2022-09-28T09:53:48.736Z,97285.31
2022-09-28T09:56:15.171Z,97280.31
2022-09-28T09:58:41.911Z,97282.50
2022-09-28T10:01:08.465Z,97275.75
2022-09-28T10:03:34.974Z,97265.94
2022-09-28T10:06:01.788Z,97265.72
2022-09-28T10:08:28.542Z,97259.44
2022-09-28T10:10:55.247Z,97265.13
2022-09-28T10:13:22.520Z,97251.59
2022-09-28T10:15:49.059Z,97252.75
2022-09-28T10:18:16.059Z,97238.66
2022-09-28T10:20:42.889Z,97242.19
2022-09-28T10:23:11.831Z,97237.22
2022-09-28T10:25:39.446Z,97226.06
2022-09-28T10:28:06.349Z,97214.97
2022-09-28T10:30:32.986Z,97216.50
2022-09-28T10:32:59.596Z,97211.50
2022-09-28T10:35:26.548Z,97213.34
2022-09-28T10:37:53.132Z,97209.13
2022-09-28T10:40:19.683Z,97208.78
2022-09-28T10:42:46.749Z,97221.78
2022-09-28T10:45:13.253Z,97214.03
2022-09-28T10:47:39.773Z,97217.22
2022-09-28T10:50:06.655Z,97204.25
2022-09-28T10:52:33.165Z,97200.75
2022-09-28T10:54:59.814Z,97200.78
2022-09-28T10:57:27.004Z,97190.63
2022-09-28T10:59:53.543Z,97191.91
2022-09-28T11:02:20.184Z,97186.59
2022-09-28T11:04:46.772Z,97192.59
2022-09-28T11:07:15.368Z,97189.88
2022-09-28T11:09:46.603Z,97184.91
2022-09-28T11:12:14.951Z,97183.88
2022-09-28T11:14:42.847Z,97182.56
2022-09-28T11:17:09.837Z,97168.44
2022-09-28T11:19:36.584Z,97175.75
2022-09-28T11:22:03.140Z,97167.00
2022-09-28T11:24:29.561Z,97173.94
2022-09-28T11:26:56.269Z,97177.25
2022-09-28T11:29:22.712Z,97180.47
2022-09-28T11:31:49.235Z,97184.91
2022-09-28T11:34:16.911Z,97171.13
2022-09-28T11:36:43.712Z,97174.97
2022-09-28T11:39:10.475Z,97183.44
2022-09-28T11:41:39.599Z,97173.78
2022-09-28T11:44:06.128Z,97181.78
2022-09-28T11:46:32.842Z,97174.69
2022-09-28T11:49:00.600Z,97181.34
2022-09-28T11:51:27.482Z,97179.81
2022-09-28T11:53:54.311Z,97177.31
2022-09-28T11:56:22.702Z,97168.31
2022-09-28T11:58:49.199Z,97186.28
2022-09-28T12:01:18.875Z,97185.97
2022-09-28T12:03:51.960Z,97194.63
2022-09-28T12:06:19.452Z,97192.13
2022-09-28T12:08:45.919Z,97192.94
2022-09-28T12:11:12.934Z,97184.66
2022-09-28T12:13:44.625Z,97192.94
2022-09-28T12:16:38.415Z,97185.28
2022-09-28T12:19:03.357Z,97194.06
2022-09-28T12:21:30.148Z,97182.75
2022-09-28T12:23:57.544Z,97200.16
2022-09-28T12:26:24.639Z,97196.84
2022-09-28T12:28:51.032Z,97196.41
2022-09-28T12:31:17.677Z,97198.69
2022-09-28T12:33:44.589Z,97191.03
2022-09-28T12:36:11.147Z,97211.50
2022-09-28T12:38:37.625Z,97215.97
2022-09-28T12:41:04.820Z,97213.50
2022-09-28T12:43:31.263Z,97221.66
2022-09-28T12:46:11.448Z,97224.28
2022-09-28T12:48:39.008Z,97230.78
2022-09-28T12:51:05.471Z,97223.66
2022-09-28T12:53:32.933Z,97225.63
2022-09-28T12:55:59.928Z,97229.72
2022-09-28T12:58:26.776Z,97224.25
2022-09-28T13:00:53.202Z,97221.56
2022-09-28T13:03:20.591Z,97214.25
2022-09-28T13:05:47.071Z,97209.56
2022-09-28T13:08:13.480Z,97206.75
2022-09-28T13:10:40.268Z,97203.78
2022-09-28T13:13:06.821Z,97199.91
2022-09-28T13:15:33.285Z,97205.97
2022-09-28T13:18:00.389Z,97210.88
2022-09-28T13:20:28.007Z,97208.53
2022-09-28T13:22:54.424Z,97212.53
2022-09-28T13:25:21.181Z,97209.47
2022-09-28T13:27:47.906Z,97207.94
2022-09-28T13:30:14.473Z,97204.84
2022-09-28T13:32:41.226Z,97205.88
2022-09-28T13:35:07.611Z,97216.00
2022-09-28T13:37:34.097Z,97227.22
2022-09-28T13:40:03.755Z,97224.28
2022-09-28T13:42:30.451Z,97220.78
2022-09-28T13:44:56.937Z,97222.91
2022-09-28T13:47:23.975Z,97230.59
2022-09-28T13:49:50.635Z,97228.75
2022-09-28T13:52:17.257Z,97228.75
2022-09-28T13:54:43.729Z,97240.53
2022-09-28T13:57:15.961Z,97241.75
2022-09-28T13:59:42.463Z,97239.28
2022-09-28T14:02:09.095Z,97244.91
2022-09-28T14:04:35.569Z,97241.63
2022-09-28T14:07:02.017Z,97245.31
2022-09-28T14:09:28.497Z,97241.34
2022-09-28T14:11:54.972Z,97245.84
2022-09-28T14:14:21.642Z,97247.63
2022-09-28T14:16:48.507Z,97238.09
2022-09-28T14:19:15.054Z,97243.03
2022-09-28T14:21:41.557Z,97247.56
2022-09-28T14:24:08.812Z,97252.91
2022-09-28T14:26:35.280Z,97253.31
2022-09-28T14:29:01.764Z,97252.00
2022-09-28T14:31:28.463Z,97256.38
2022-09-28T14:33:55.080Z,97250.63
2022-09-28T14:36:23.787Z,97245.59
2022-09-28T14:38:50.337Z,97246.66
2022-09-28T14:41:16.776Z,97240.25
2022-09-28T14:43:43.346Z,97246.19
2022-09-28T14:46:12.621Z,97252.44
2022-09-28T14:48:39.232Z,97239.25
2022-09-28T14:51:05.694Z,97252.47
2022-09-28T14:53:32.364Z,97259.72
2022-09-28T14:55:59.194Z,97266.03
2022-09-28T14:58:26.757Z,97265.66
2022-09-28T15:00:54.450Z,97272.66
2022-09-28T15:03:23.289Z,97286.78
2022-09-28T15:05:49.867Z,97274.38
2022-09-28T15:08:16.388Z,97275.50
2022-09-28T15:10:43.006Z,97276.53
2022-09-28T15:13:09.455Z,97280.47
2022-09-28T15:15:36.172Z,97288.47
2022-09-28T15:18:02.703Z,97283.84
2022-09-28T15:20:29.168Z,97288.66
2022-09-28T15:22:55.892Z,97291.63
2022-09-28T15:25:22.476Z,97300.69
2022-09-28T15:27:49.009Z,97300.19
2022-09-28T15:30:16.043Z,97309.03
2022-09-28T15:32:42.532Z,97302.88
2022-09-28T15:35:09.052Z,97318.84
2022-09-28T15:37:40.292Z,97318.69
2022-09-28T15:40:07.258Z,97318.56
2022-09-28T15:42:33.762Z,97319.50
2022-09-28T15:45:00.325Z,97320.50
2022-09-28T15:47:27.001Z,97334.06
2022-09-28T15:49:53.504Z,97332.31
2022-09-28T15:52:20.050Z,97325.53
2022-09-28T15:54:46.648Z,97319.19
2022-09-28T15:57:13.195Z,97322.66
2022-09-28T15:59:40.781Z,97316.72
2022-09-28T16:02:08.411Z,97324.53
2022-09-28T16:04:34.969Z,97326.19
2022-09-28T16:07:01.650Z,97329.00
2022-09-28T16:09:28.181Z,97320.38
2022-09-28T16:11:54.631Z,97321.56
2022-09-28T16:14:21.812Z,97323.56
2022-09-28T16:16:48.364Z,97331.34
2022-09-28T16:19:14.825Z,97337.81
2022-09-28T16:21:41.670Z,97337.84
2022-09-28T16:24:08.359Z,97346.09
2022-09-28T16:26:34.938Z,97339.59
2022-09-28T16:29:02.522Z,97348.97
2022-09-28T16:31:29.117Z,97351.16
2022-09-28T16:33:55.863Z,97344.50
2022-09-28T16:36:22.566Z,97350.44
2022-09-28T16:38:49.301Z,97358.47
2022-09-28T16:41:15.834Z,97365.44
2022-09-28T16:43:42.600Z,97366.59
2022-09-28T16:46:09.305Z,97368.63
2022-09-28T16:48:35.855Z,97369.09
2022-09-28T16:51:02.850Z,97370.44
2022-09-28T16:53:29.283Z,97363.94
2022-09-28T16:55:55.901Z,97365.44
2022-09-28T16:58:22.643Z,97367.09
2022-09-28T17:00:49.178Z,97367.59
2022-09-28T17:03:15.804Z,97363.13
2022-09-28T17:05:42.607Z,97366.28
2022-09-28T17:08:09.109Z,97366.78
2022-09-28T17:10:50.144Z,97366.47
2022-09-28T17:13:22.462Z,97372.28
2022-09-28T17:15:49.123Z,97370.22
2022-09-28T17:18:15.650Z,97381.06
2022-09-28T17:20:42.423Z,97377.09
2022-09-28T17:23:09.031Z,97382.75
2022-09-28T17:25:35.463Z,97386.72
2022-09-28T17:28:03.701Z,97386.16
2022-09-28T17:30:30.197Z,97378.69
2022-09-28T17:32:56.899Z,97384.59
2022-09-28T17:35:25.270Z,97384.44
2022-09-28T17:37:52.070Z,97386.94
2022-09-28T17:40:18.582Z,97393.31
2022-09-28T17:42:45.675Z,97393.91
2022-09-28T17:45:12.113Z,97392.63
2022-09-28T17:47:38.972Z,97389.50
2022-09-28T17:50:06.272Z,97393.72
2022-09-28T17:52:32.939Z,97385.75
2022-09-28T17:54:59.785Z,97391.41
2022-09-28T17:57:27.271Z,97393.25
2022-09-28T17:59:53.804Z,97389.84
2022-09-28T18:02:20.864Z,97390.44
2022-09-28T18:04:52.065Z,97393.72
2022-09-28T18:07:19.309Z,97385.84
2022-09-28T18:09:45.948Z,97387.00
2022-09-28T18:12:12.685Z,97397.63
2022-09-28T18:14:39.190Z,97394.44
2022-09-28T18:17:05.894Z,97398.50
2022-09-28T18:19:32.711Z,97392.56
2022-09-28T18:21:59.260Z,97387.78
2022-09-28T18:24:25.765Z,97391.81
2022-09-28T18:26:52.394Z,97388.41
2022-09-28T18:29:18.872Z,97396.44
2022-09-28T18:31:45.359Z,97383.50
2022-09-28T18:34:12.602Z,97388.13
2022-09-28T18:36:39.258Z,97393.72
2022-09-28T18:39:05.731Z,97399.41
2022-09-28T18:41:32.818Z,97397.03
2022-09-28T18:43:59.658Z,97413.47
2022-09-28T18:46:26.162Z,97414.19
2022-09-28T18:48:53.002Z,97418.47
2022-09-28T18:51:19.476Z,97416.38
2022-09-28T18:53:46.335Z,97417.22
2022-09-28T18:56:13.386Z,97421.31
2022-09-28T18:58:39.939Z,97424.50
2022-09-28T19:01:28.302Z,97423.19
2022-09-28T19:03:54.061Z,97416.38
2022-09-28T19:06:20.905Z,97420.84
2022-09-28T19:08:47.486Z,97434.59
2022-09-28T19:11:14.029Z,97424.91
2022-09-28T19:13:40.522Z,97434.22
2022-09-28T19:16:07.440Z,97428.56
2022-09-28T19:18:34.149Z,97425.97
2022-09-28T19:21:00.785Z,97427.31
2022-09-28T19:23:27.418Z,97435.00
2022-09-28T19:25:54.465Z,97435.47
2022-09-28T19:28:21.541Z,97448.44
2022-09-28T19:30:48.263Z,97448.53
2022-09-28T19:33:14.855Z,97446.88
2022-09-28T19:35:41.269Z,97449.47
2022-09-28T19:38:07.799Z,97457.50
2022-09-28T19:40:35.104Z,97451.22
2022-09-28T19:43:01.601Z,97456.97
2022-09-28T19:45:28.031Z,97446.88
2022-09-28T19:47:59.243Z,97453.34
2022-09-28T19:50:26.129Z,97455.75
2022-09-28T19:52:52.960Z,97452.00
2022-09-28T19:55:19.460Z,97463.63
2022-09-28T19:57:46.074Z,97456.66
2022-09-28T20:00:12.709Z,97455.47
2022-09-28T20:02:39.279Z,97459.78
2022-09-28T20:05:05.706Z,97452.66
2022-09-28T20:07:32.175Z,97472.25
2022-09-28T20:09:58.715Z,97477.88
2022-09-28T20:12:25.159Z,97473.72
2022-09-28T20:14:51.653Z,97477.44
2022-09-28T20:17:18.134Z,97478.13
2022-09-28T20:19:44.745Z,97475.53
2022-09-28T20:22:11.220Z,97481.75
2022-09-28T20:24:38.287Z,97472.72
2022-09-28T20:27:04.795Z,97475.56
2022-09-28T20:29:31.200Z,97479.34
2022-09-28T20:31:58.163Z,97486.81
2022-09-28T20:34:24.584Z,97487.75
2022-09-28T20:36:51.127Z,97484.56
2022-09-28T20:39:18.145Z,97483.13
2022-09-28T20:41:44.674Z,97487.88
2022-09-28T20:44:11.147Z,97494.78
2022-09-28T20:46:37.881Z,97494.78
2022-09-28T20:49:04.304Z,97498.19
2022-09-28T20:51:31.042Z,97498.84
2022-09-28T20:53:57.746Z,97503.50
2022-09-28T20:56:24.504Z,97507.19
2022-09-28T20:58:51.174Z,97513.72
2022-09-28T21:01:17.786Z,97511.22
2022-09-28T21:03:44.327Z,97507.88
2022-09-28T21:06:12.403Z,97508.03
2022-09-28T21:08:39.279Z,97513.38
2022-09-28T21:11:06.307Z,97519.06
2022-09-28T21:13:32.761Z,97523.28
2022-09-28T21:15:59.602Z,97519.66
2022-09-28T21:18:26.063Z,97520.81
2022-09-28T21:20:52.557Z,97517.78
2022-09-28T21:23:23.997Z,97521.91
2022-09-28T21:25:52.303Z,97525.03
2022-09-28T21:28:18.914Z,97535.72
2022-09-28T21:30:45.586Z,97532.44
2022-09-28T21:33:12.117Z,97535.28
2022-09-28T21:35:38.622Z,97536.25
2022-09-28T21:38:07.180Z,97534.31
2022-09-28T21:40:33.749Z,97538.03
2022-09-28T21:43:00.226Z,97529.31
2022-09-28T21:45:26.894Z,97530.69
2022-09-28T21:47:53.398Z,97546.97
2022-09-28T21:50:19.859Z,97544.91
2022-09-28T21:52:46.526Z,97543.16
2022-09-28T21:55:12.979Z,97543.06
2022-09-28T21:57:39.410Z,97541.34
2022-09-28T22:00:06.589Z,97542.88
2022-09-28T22:02:33.108Z,97547.53
2022-09-28T22:04:59.583Z,97554.22
2022-09-28T22:07:26.622Z,97549.56
2022-09-28T22:09:53.681Z,97541.53
2022-09-28T22:12:20.273Z,97551.56
2022-09-28T22:14:47.207Z,97554.84
2022-09-28T22:17:16.303Z,97557.22
2022-09-28T22:19:42.875Z,97554.78
2022-09-28T22:22:09.913Z,97564.53
2022-09-28T22:24:39.002Z,97558.75
2022-09-28T22:27:05.866Z,97566.03
2022-09-28T22:29:33.439Z,97562.75
2022-09-28T22:31:59.953Z,97566.91
2022-09-28T22:34:26.454Z,97569.13
2022-09-28T22:36:53.354Z,97566.63
2022-09-28T22:39:20.003Z,97571.69
2022-09-28T22:41:46.489Z,97571.63
2022-09-28T22:44:13.406Z,97575.50
2022-09-28T22:46:39.997Z,97574.72
2022-09-28T22:49:06.744Z,97578.13
2022-09-28T22:51:34.556Z,97579.34
2022-09-28T22:54:01.364Z,97582.88
2022-09-28T22:56:27.807Z,97591.84
2022-09-28T22:58:54.457Z,97586.44
2022-09-28T23:01:21.022Z,97591.16
2022-09-28T23:03:48.033Z,97588.03
2022-09-28T23:06:14.651Z,97591.31
2022-09-28T23:08:41.374Z,97594.84
2022-09-28T23:11:07.866Z,97593.09
2022-09-28T23:13:34.428Z,97592.41
2022-09-28T23:16:01.211Z,97595.88
2022-09-28T23:18:27.874Z,97594.16
2022-09-28T23:20:54.654Z,97608.25
2022-09-28T23:23:21.092Z,97616.19
2022-09-28T23:25:47.518Z,97616.28
2022-09-28T23:28:14.211Z,97613.31
2022-09-28T23:30:40.619Z,97607.63
2022-09-28T23:33:07.130Z,97607.19
2022-09-28T23:35:33.902Z,97615.69
2022-09-28T23:38:00.447Z,97611.03
2022-09-28T23:40:27.037Z,97610.44
2022-09-28T23:42:55.128Z,97605.94
2022-09-28T23:45:21.609Z,97609.28
2022-09-28T23:47:48.313Z,97608.59
2022-09-28T23:50:15.405Z,97616.53
2022-09-28T23:52:41.905Z,97614.50
2022-09-28T23:55:08.315Z,97602.16
2022-09-28T23:57:34.883Z,97618.00
